Time;durP1;ratioP1;P1;durP2;ratioP2;P2;SDS_P1;SDS_P2;PMS_P1;PMS_P2;Temp;Humidity;BMP_temperature;BMP_pressure;BME280_temperature;BME280_humidity;BME280_pressure;Samples;Min_cycle;Max_cycle;Signal;HPM_P1;HPM_P2
2022/05/21 00:00:22;;;;;;;17.13;9.95;;;;;;;;;;5129614;27;20045;-69
2022/05/21 00:02:50;;;;;;;12.48;8.90;;;;;;;;;;5129571;27;20103;-69
2022/05/21 00:05:18;;;;;;;12.10;8.60;;;;;;;;;;5135039;27;20031;-71
2022/05/21 00:07:45;;;;;;;19.33;8.60;;;;;;;;;;5144036;27;20043;-70
2022/05/21 00:10:13;;;;;;;14.23;8.80;;;;;;;;;;5147724;27;20023;-69
2022/05/21 00:12:40;;;;;;;11.70;8.18;;;;;;;;;;5153758;27;20022;-70
2022/05/21 00:15:07;;;;;;;15.18;9.63;;;;;;;;;;5138377;27;20113;-69
2022/05/21 00:17:34;;;;;;;14.65;8.70;;;;;;;;;;5133226;28;20015;-67
2022/05/21 00:20:01;;;;;;;12.35;9.25;;;;;;;;;;5138762;27;20027;-70
2022/05/21 00:22:28;;;;;;;12.45;8.70;;;;;;;;;;5129937;27;20023;-68
2022/05/21 00:24:55;;;;;;;13.80;8.27;;;;;;;;;;5129561;27;20716;-72
2022/05/21 00:27:22;;;;;;;16.25;9.07;;;;;;;;;;5130415;27;20035;-67
2022/05/21 00:29:48;;;;;;;14.95;8.98;;;;;;;;;;5128184;28;20461;-69
2022/05/21 00:32:15;;;;;;;16.92;8.85;;;;;;;;;;5133246;28;20035;-70
2022/05/21 00:34:42;;;;;;;13.43;9.15;;;;;;;;;;5133051;28;20023;-70
2022/05/21 00:37:08;;;;;;;16.00;8.90;;;;;;;;;;5146445;27;20022;-71
2022/05/21 00:39:35;;;;;;;12.95;9.13;;;;;;;;;;5153918;27;20023;-70
2022/05/21 00:42:06;;;;;;;19.20;9.45;;;;;;;;;;5144638;27;20027;-70
2022/05/21 00:44:32;;;;;;;10.45;8.90;;;;;;;;;;5128132;28;20016;-67
2022/05/21 00:46:59;;;;;;;16.90;7.75;;;;;;;;;;5127885;28;20023;-71
2022/05/21 00:49:31;;;;;;;13.50;7.18;;;;;;;;;;5139645;27;20031;-70
2022/05/21 00:51:58;;;;;;;14.63;7.15;;;;;;;;;;5136031;27;20437;-71
2022/05/21 00:54:28;;;;;;;19.55;7.25;;;;;;;;;;5132746;28;20077;-70
2022/05/21 00:57:00;;;;;;;13.48;7.88;;;;;;;;;;5133037;28;20458;-70
2022/05/21 01:02:13;;;;;;;20.35;7.82;;;;;;;;;;5133104;28;20034;-70
2022/05/21 01:04:39;;;;;;;19.80;8.35;;;;;;;;;;5131231;27;20037;-71
2022/05/21 01:07:07;;;;;;;22.20;7.72;;;;;;;;;;5128661;27;20489;-71
2022/05/21 01:09:35;;;;;;;11.38;7.93;;;;;;;;;;5127724;27;20027;-68
2022/05/21 01:12:03;;;;;;;15.65;8.13;;;;;;;;;;5145028;27;20025;-75
2022/05/21 01:14:30;;;;;;;16.20;7.85;;;;;;;;;;5148660;27;20472;-74
2022/05/21 01:16:56;;;;;;;20.35;9.15;;;;;;;;;;5153158;27;20102;-75
2022/05/21 01:19:23;;;;;;;17.02;8.55;;;;;;;;;;5153416;27;20852;-74
2022/05/21 01:21:50;;;;;;;27.55;7.78;;;;;;;;;;5157052;27;20046;-74
2022/05/21 01:24:16;;;;;;;20.90;7.90;;;;;;;;;;5154198;27;20033;-75
2022/05/21 01:26:43;;;;;;;13.05;7.32;;;;;;;;;;5154133;27;20031;-74
2022/05/21 01:29:22;;;;;;;16.42;8.13;;;;;;;;;;5151850;27;20049;-74
2022/05/21 01:31:52;;;;;;;16.63;8.25;;;;;;;;;;5152120;27;20058;-75
2022/05/21 01:34:20;;;;;;;16.33;7.68;;;;;;;;;;5151899;27;20035;-75
2022/05/21 01:36:46;;;;;;;20.08;8.88;;;;;;;;;;5152317;27;20033;-74
2022/05/21 01:39:13;;;;;;;14.32;8.60;;;;;;;;;;5149831;27;20046;-75
2022/05/21 01:41:44;;;;;;;17.20;8.32;;;;;;;;;;5136258;27;20017;-74
2022/05/21 01:46:56;;;;;;;16.83;8.27;;;;;;;;;;5136121;27;20515;-74
2022/05/21 01:49:22;;;;;;;19.40;8.32;;;;;;;;;;5143240;27;20031;-73
2022/05/21 01:51:49;;;;;;;15.15;7.78;;;;;;;;;;5151653;27;20023;-72
2022/05/21 01:54:16;;;;;;;13.88;7.90;;;;;;;;;;5151499;27;20057;-72
2022/05/21 01:56:43;;;;;;;16.50;8.23;;;;;;;;;;5131657;27;20094;-73
2022/05/21 01:59:10;;;;;;;20.27;8.50;;;;;;;;;;5110788;28;20022;-73
2022/05/21 02:01:37;;;;;;;17.53;8.03;;;;;;;;;;5115299;28;20032;-73
2022/05/21 02:04:03;;;;;;;13.37;7.10;;;;;;;;;;5139627;27;20107;-73
2022/05/21 02:06:30;;;;;;;15.53;8.00;;;;;;;;;;5135658;27;20030;-73
2022/05/21 02:08:57;;;;;;;17.70;8.37;;;;;;;;;;5135521;27;20023;-72
2022/05/21 02:11:24;;;;;;;13.80;8.10;;;;;;;;;;5134156;27;20019;-73
2022/05/21 02:13:50;;;;;;;12.10;7.70;;;;;;;;;;5130273;27;20505;-72
2022/05/21 02:16:17;;;;;;;17.90;8.47;;;;;;;;;;5130352;27;20560;-72
2022/05/21 02:18:44;;;;;;;20.13;8.40;;;;;;;;;;5143014;27;20026;-72
2022/05/21 02:21:11;;;;;;;16.37;7.97;;;;;;;;;;5151019;27;20019;-73
2022/05/21 02:23:37;;;;;;;16.53;8.63;;;;;;;;;;5156183;27;20022;-72
2022/05/21 02:26:04;;;;;;;21.97;8.57;;;;;;;;;;5155812;27;20491;-72
2022/05/21 02:28:31;;;;;;;14.23;7.80;;;;;;;;;;5155400;27;20026;-72
2022/05/21 02:30:58;;;;;;;16.80;8.97;;;;;;;;;;5156054;27;20022;-72
2022/05/21 02:33:25;;;;;;;16.33;8.53;;;;;;;;;;5153135;27;20033;-72
2022/05/21 02:35:52;;;;;;;13.47;8.77;;;;;;;;;;5130050;27;20016;-72
2022/05/21 02:41:03;;;;;;;;;;;;;;;;;;5130280;27;20046;-72
2022/05/21 02:43:30;;;;;;;14.93;8.83;;;;;;;;;;5130318;27;20021;-72
2022/05/21 02:45:57;;;;;;;14.93;8.47;;;;;;;;;;5134592;27;20026;-72
2022/05/21 02:48:27;;;;;;;17.70;8.30;;;;;;;;;;5134779;27;20461;-72
2022/05/21 02:50:55;;;;;;;20.20;9.17;;;;;;;;;;5150653;27;20443;-72
2022/05/21 02:53:21;;;;;;;13.93;8.93;;;;;;;;;;5155366;27;20461;-72
2022/05/21 02:55:49;;;;;;;21.10;8.73;;;;;;;;;;5150526;27;20063;-72
2022/05/21 02:58:16;;;;;;;14.63;8.50;;;;;;;;;;5109107;28;20560;-71
2022/05/21 03:00:43;;;;;;;16.67;8.50;;;;;;;;;;5109088;28;20087;-71
2022/05/21 03:03:10;;;;;;;13.20;8.10;;;;;;;;;;5108687;28;20049;-71
2022/05/21 03:05:37;;;;;;;13.73;7.90;;;;;;;;;;5124479;27;20034;-74
2022/05/21 03:10:52;;;;;;;18.30;8.27;;;;;;;;;;5155373;27;20058;-72
2022/05/21 03:13:19;;;;;;;16.33;7.60;;;;;;;;;;5155106;27;20048;-72
2022/05/21 03:15:45;;;;;;;18.50;7.63;;;;;;;;;;5155001;27;20027;-72
2022/05/21 03:18:13;;;;;;;14.67;7.23;;;;;;;;;;5153632;27;20358;-72
2022/05/21 03:20:40;;;;;;;12.10;7.00;;;;;;;;;;5129297;27;20035;-72
2022/05/21 03:23:07;;;;;;;15.67;8.00;;;;;;;;;;5129270;27;20033;-72
2022/05/21 03:25:34;;;;;;;16.80;8.37;;;;;;;;;;5128947;27;20022;-71
2022/05/21 03:28:01;;;;;;;12.93;7.73;;;;;;;;;;5129790;27;20091;-72
2022/05/21 03:30:29;;;;;;;14.97;8.23;;;;;;;;;;5133875;27;20019;-72
2022/05/21 03:32:56;;;;;;;15.90;8.47;;;;;;;;;;5139366;27;20058;-72
2022/05/21 03:35:23;;;;;;;18.47;8.37;;;;;;;;;;5138833;27;20031;-72
2022/05/21 03:37:52;;;;;;;15.10;7.17;;;;;;;;;;5142874;27;20020;-72
2022/05/21 03:40:21;;;;;;;20.13;8.87;;;;;;;;;;5132708;27;20020;-72
2022/05/21 03:42:48;;;;;;;14.73;8.13;;;;;;;;;;5128407;27;20489;-72
2022/05/21 03:45:15;;;;;;;17.07;7.90;;;;;;;;;;5128651;27;20023;-72
2022/05/21 03:47:42;;;;;;;18.77;8.63;;;;;;;;;;5128774;27;20370;-72
2022/05/21 03:50:23;;;;;;;13.97;8.00;;;;;;;;;;5128892;27;20389;-72
2022/05/21 03:52:50;;;;;;;18.83;8.80;;;;;;;;;;5143296;27;20030;-72
2022/05/21 03:55:17;;;;;;;20.27;9.27;;;;;;;;;;5154429;27;20461;-71
2022/05/21 03:57:44;;;;;;;14.07;8.20;;;;;;;;;;5135630;27;20019;-71
2022/05/21 04:00:12;;;;;;;17.83;8.47;;;;;;;;;;5133331;27;20098;-71
2022/05/21 04:02:39;;;;;;;16.93;7.93;;;;;;;;;;5131920;27;20015;-72
2022/05/21 04:05:07;;;;;;;16.47;7.93;;;;;;;;;;5128553;27;20023;-72
2022/05/21 04:07:34;;;;;;;16.73;7.90;;;;;;;;;;5128442;27;20027;-72
2022/05/21 04:10:01;;;;;;;17.20;8.00;;;;;;;;;;5147137;27;20078;-71
2022/05/21 04:12:27;;;;;;;15.67;8.27;;;;;;;;;;5149645;27;20060;-72
2022/05/21 04:14:54;;;;;;;19.00;8.10;;;;;;;;;;5153914;27;20022;-71
2022/05/21 04:17:21;;;;;;;15.47;7.73;;;;;;;;;;5153974;27;20089;-71
2022/05/21 04:19:48;;;;;;;18.37;8.87;;;;;;;;;;5148610;27;20020;-72
2022/05/21 04:22:14;;;;;;;29.80;8.53;;;;;;;;;;5151874;27;20030;-72
2022/05/21 04:24:41;;;;;;;14.13;8.60;;;;;;;;;;5153239;27;20072;-71
2022/05/21 04:27:08;;;;;;;14.17;8.30;;;;;;;;;;5148790;27;20023;-71
2022/05/21 04:29:38;;;;;;;16.00;8.97;;;;;;;;;;5148836;27;20026;-71
2022/05/21 04:32:05;;;;;;;17.17;8.50;;;;;;;;;;5149034;27;20023;-71
2022/05/21 04:34:31;;;;;;;16.23;8.13;;;;;;;;;;5143294;27;20408;-72
2022/05/21 04:36:58;;;;;;;17.80;7.50;;;;;;;;;;5153452;27;20477;-72
2022/05/21 04:39:25;;;;;;;14.27;7.93;;;;;;;;;;5147826;27;20031;-68
2022/05/21 04:41:52;;;;;;;14.40;8.27;;;;;;;;;;5135329;27;20034;-68
2022/05/21 04:44:19;;;;;;;17.17;7.53;;;;;;;;;;5149166;27;20422;-68
2022/05/21 04:46:46;;;;;;;16.17;7.70;;;;;;;;;;5152998;27;20019;-68
2022/05/21 04:49:13;;;;;;;14.07;8.30;;;;;;;;;;5130379;27;20035;-68
2022/05/21 04:51:39;;;;;;;15.80;7.63;;;;;;;;;;5128136;28;20474;-67
2022/05/21 04:54:06;;;;;;;14.43;7.13;;;;;;;;;;5127788;27;20031;-67
2022/05/21 04:56:34;;;;;;;12.63;7.27;;;;;;;;;;5131348;27;20023;-67
2022/05/21 04:59:01;;;;;;;13.53;6.50;;;;;;;;;;5136750;27;20029;-66
2022/05/21 05:01:30;;;;;;;13.13;8.00;;;;;;;;;;5148281;27;20023;-68
2022/05/21 05:03:57;;;;;;;22.43;8.37;;;;;;;;;;5157464;27;20027;-68
2022/05/21 05:06:24;;;;;;;12.97;7.13;;;;;;;;;;5155689;27;20468;-67
2022/05/21 05:08:51;;;;;;;17.07;7.30;;;;;;;;;;5139902;27;20034;-69
2022/05/21 05:11:18;;;;;;;14.37;7.13;;;;;;;;;;5132810;27;20068;-68
2022/05/21 05:13:45;;;;;;;16.63;7.90;;;;;;;;;;5131807;27;20374;-69
2022/05/21 05:16:11;;;;;;;17.63;8.23;;;;;;;;;;5139127;27;20488;-69
2022/05/21 05:18:38;;;;;;;18.57;7.60;;;;;;;;;;5152433;27;20023;-68
2022/05/21 05:21:05;;;;;;;13.60;6.63;;;;;;;;;;5156369;27;20046;-70
2022/05/21 05:23:32;;;;;;;11.13;6.23;;;;;;;;;;5117813;27;20053;-69
2022/05/21 05:25:59;;;;;;;15.67;6.50;;;;;;;;;;5115855;28;20435;-69
2022/05/21 05:28:27;;;;;;;10.90;6.90;;;;;;;;;;5116146;27;20038;-69
2022/05/21 05:30:54;;;;;;;13.03;7.13;;;;;;;;;;5153338;27;20608;-69
2022/05/21 05:33:22;;;;;;;11.10;7.20;;;;;;;;;;5152115;27;20142;-69
2022/05/21 05:35:50;;;;;;;14.53;7.90;;;;;;;;;;5151670;27;20049;-69
2022/05/21 05:38:17;;;;;;;10.63;7.63;;;;;;;;;;5151570;27;20434;-69
2022/05/21 05:40:47;;;;;;;18.67;7.90;;;;;;;;;;5151423;27;20045;-69
2022/05/21 05:43:14;;;;;;;10.60;7.07;;;;;;;;;;5149418;27;20154;-69
2022/05/21 05:45:41;;;;;;;14.17;7.97;;;;;;;;;;5136049;27;20036;-69
2022/05/21 05:48:08;;;;;;;13.40;9.17;;;;;;;;;;5135973;27;20023;-69
2022/05/21 05:50:35;;;;;;;16.00;8.57;;;;;;;;;;5135928;27;20106;-69
2022/05/21 05:53:02;;;;;;;11.93;8.13;;;;;;;;;;5135983;27;20031;-69
2022/05/21 05:55:30;;;;;;;17.17;7.93;;;;;;;;;;5131681;27;20043;-69
2022/05/21 05:57:57;;;;;;;14.03;8.33;;;;;;;;;;5130415;27;20019;-69
2022/05/21 06:00:24;;;;;;;14.23;8.33;;;;;;;;;;5148339;27;20457;-69
2022/05/21 06:03:01;;;;;;;14.63;7.33;;;;;;;;;;5149332;27;20034;-69
2022/05/21 06:05:30;;;;;;;13.33;7.97;;;;;;;;;;5133442;27;20049;-69
2022/05/21 06:07:58;;;;;;;16.10;7.43;;;;;;;;;;5135674;27;20027;-69
2022/05/21 06:10:27;;;;;;;12.60;7.90;;;;;;;;;;5135603;27;20076;-69
2022/05/21 06:12:54;;;;;;;15.00;8.27;;;;;;;;;;5135158;27;20070;-69
2022/05/21 06:15:21;;;;;;;15.20;8.27;;;;;;;;;;5135006;27;20109;-69
2022/05/21 06:17:49;;;;;;;14.97;8.23;;;;;;;;;;5141641;27;20007;-69
2022/05/21 06:20:17;;;;;;;12.33;7.93;;;;;;;;;;5150403;27;20038;-69
2022/05/21 06:22:44;;;;;;;11.97;8.30;;;;;;;;;;5150587;27;20054;-69
2022/05/21 06:25:17;;;;;;;13.27;8.17;;;;;;;;;;5150692;27;20027;-69
2022/05/21 06:27:47;;;;;;;13.57;8.27;;;;;;;;;;5153804;27;20025;-69
2022/05/21 06:30:14;;;;;;;14.80;8.73;;;;;;;;;;5155673;27;20023;-68
2022/05/21 06:32:41;;;;;;;14.63;8.43;;;;;;;;;;5154104;27;20034;-69
2022/05/21 06:35:09;;;;;;;13.80;7.87;;;;;;;;;;5134869;27;20091;-68
2022/05/21 06:37:36;;;;;;;13.87;7.63;;;;;;;;;;5135055;27;20081;-69
2022/05/21 06:40:03;;;;;;;11.60;7.43;;;;;;;;;;5131324;27;20035;-68
2022/05/21 06:42:30;;;;;;;13.23;8.40;;;;;;;;;;5129687;27;20109;-69
2022/05/21 06:44:56;;;;;;;15.77;7.83;;;;;;;;;;5129380;27;20023;-69
2022/05/21 06:47:23;;;;;;;11.67;8.10;;;;;;;;;;5129410;27;20027;-69
2022/05/21 06:49:54;;;;;;;15.33;8.27;;;;;;;;;;5144127;27;20421;-68
2022/05/21 06:52:21;;;;;;;10.77;7.30;;;;;;;;;;5155568;27;20011;-69
2022/05/21 06:54:48;;;;;;;12.47;7.67;;;;;;;;;;5155269;27;20449;-69
2022/05/21 06:57:14;;;;;;;14.27;8.43;;;;;;;;;;5155408;27;20072;-69
2022/05/21 06:59:41;;;;;;;14.57;8.20;;;;;;;;;;5155171;27;20018;-69
2022/05/21 07:02:08;;;;;;;12.67;7.37;;;;;;;;;;5152093;27;20046;-68
2022/05/21 07:07:35;;;;;;;18.17;7.63;;;;;;;;;;5129174;27;20095;-68
2022/05/21 07:10:06;;;;;;;12.80;8.20;;;;;;;;;;5130038;27;20019;-69
2022/05/21 07:12:33;;;;;;;12.10;7.33;;;;;;;;;;5132076;27;20358;-69
2022/05/21 07:15:00;;;;;;;14.10;7.47;;;;;;;;;;5134266;27;20075;-68
2022/05/21 07:17:27;;;;;;;12.73;7.37;;;;;;;;;;5133656;27;20034;-69
2022/05/21 07:19:54;;;;;;;11.97;6.93;;;;;;;;;;5133928;27;20019;-68
2022/05/21 07:22:21;;;;;;;16.10;7.27;;;;;;;;;;5152281;27;20029;-68
2022/05/21 07:24:47;;;;;;;13.40;7.83;;;;;;;;;;5130570;27;20477;-68
2022/05/21 07:27:14;;;;;;;16.73;7.83;;;;;;;;;;5128520;27;20031;-68
2022/05/21 07:29:42;;;;;;;12.77;8.03;;;;;;;;;;5128715;27;20030;-68
2022/05/21 07:32:19;;;;;;;16.63;9.03;;;;;;;;;;5141560;27;20037;-69
2022/05/21 07:34:46;;;;;;;13.13;8.00;;;;;;;;;;5151950;27;20035;-68
2022/05/21 07:37:13;;;;;;;15.50;8.17;;;;;;;;;;5154317;27;20030;-68
2022/05/21 07:39:39;;;;;;;14.77;7.93;;;;;;;;;;5154444;27;20398;-69
2022/05/21 07:42:07;;;;;;;13.17;7.47;;;;;;;;;;5146839;27;20497;-68
2022/05/21 07:44:34;;;;;;;17.33;8.77;;;;;;;;;;5142237;27;20369;-69
2022/05/21 07:47:00;;;;;;;13.70;8.70;;;;;;;;;;5143678;27;20568;-68
2022/05/21 07:49:27;;;;;;;13.27;9.00;;;;;;;;;;5142510;27;20105;-69
2022/05/21 07:51:56;;;;;;;20.27;11.50;;;;;;;;;;5148980;27;20113;-69
2022/05/21 07:54:23;;;;;;;28.60;14.03;;;;;;;;;;5148595;27;20030;-68
2022/05/21 07:56:50;;;;;;;19.47;11.50;;;;;;;;;;5150996;27;20050;-69
2022/05/21 07:59:17;;;;;;;19.77;11.53;;;;;;;;;;5153819;27;20373;-69
2022/05/21 08:01:43;;;;;;;20.97;11.47;;;;;;;;;;5153534;27;20056;-69
2022/05/21 08:04:10;;;;;;;25.27;13.40;;;;;;;;;;5133563;27;20019;-68
2022/05/21 08:06:37;;;;;;;23.03;12.30;;;;;;;;;;5133292;27;20031;-68
2022/05/21 08:09:04;;;;;;;20.00;10.83;;;;;;;;;;5131153;27;20019;-69
2022/05/21 08:11:30;;;;;;;17.93;10.30;;;;;;;;;;5128016;27;20027;-69
2022/05/21 08:13:57;;;;;;;20.07;12.03;;;;;;;;;;5127920;27;20035;-69
2022/05/21 08:16:24;;;;;;;20.83;11.57;;;;;;;;;;5127615;27;20019;-69
2022/05/21 08:18:51;;;;;;;16.43;10.20;;;;;;;;;;5141686;27;20054;-68
2022/05/21 08:21:18;;;;;;;18.23;10.00;;;;;;;;;;5154043;27;20541;-68
2022/05/21 08:29:15;;;;;;;18.65;10.18;;;;;;;;;;5155009;27;20034;-68
2022/05/21 08:31:41;;;;;;;12.60;8.63;;;;;;;;;;5155404;27;20011;-68
2022/05/21 08:34:08;;;;;;;15.13;9.00;;;;;;;;;;5144493;27;20035;-68
2022/05/21 08:36:35;;;;;;;16.83;9.43;;;;;;;;;;5133027;27;20042;-68
2022/05/21 08:39:02;;;;;;;19.47;11.43;;;;;;;;;;5131920;27;20477;-68
2022/05/21 08:41:31;;;;;;;19.77;11.53;;;;;;;;;;5133997;27;20019;-68
2022/05/21 08:44:03;;;;;;;17.23;9.43;;;;;;;;;;5137315;27;20025;-68
2022/05/21 08:46:30;;;;;;;17.10;8.67;;;;;;;;;;5137055;27;20438;-68
2022/05/21 08:49:07;;;;;;;13.33;8.13;;;;;;;;;;5142621;27;20027;-68
2022/05/21 08:51:53;;;;;;;17.90;8.80;;;;;;;;;;5150487;27;20044;-68
2022/05/21 08:54:23;;;;;;;19.27;9.43;;;;;;;;;;5154054;27;20058;-68
2022/05/21 08:56:51;;;;;;;15.97;8.23;;;;;;;;;;5152236;27;20023;-68
2022/05/21 08:59:21;;;;;;;16.47;9.20;;;;;;;;;;5152246;27;20098;-68
2022/05/21 09:01:48;;;;;;;14.90;7.47;;;;;;;;;;5152144;27;20023;-68
2022/05/21 09:04:15;;;;;;;16.60;8.47;;;;;;;;;;5139593;27;20431;-68
2022/05/21 09:06:53;;;;;;;19.17;8.70;;;;;;;;;;5136283;27;20371;-68
2022/05/21 09:09:35;;;;;;;15.70;8.53;;;;;;;;;;5136833;27;20017;-68
2022/05/21 09:12:18;;;;;;;14.17;9.50;;;;;;;;;;5136621;27;20087;-68
2022/05/21 09:14:47;;;;;;;18.17;9.33;;;;;;;;;;5135995;27;20427;-68
2022/05/21 09:17:18;;;;;;;14.83;8.03;;;;;;;;;;5138551;27;20037;-68
2022/05/21 09:19:52;;;;;;;13.37;8.47;;;;;;;;;;5151768;27;20014;-68
2022/05/21 09:22:20;;;;;;;13.93;9.07;;;;;;;;;;5152033;27;20432;-68
2022/05/21 09:24:49;;;;;;;14.40;9.07;;;;;;;;;;5151256;27;20010;-68
2022/05/21 09:27:33;;;;;;;13.07;9.00;;;;;;;;;;5155632;27;20411;-68
2022/05/21 09:30:18;;;;;;;16.30;9.23;;;;;;;;;;5157095;27;20377;-68
2022/05/21 09:32:48;;;;;;;15.00;8.65;;;;;;;;;;5149463;27;20110;-68
2022/05/21 09:35:17;;;;;;;12.63;8.37;;;;;;;;;;5135832;27;20026;-68
2022/05/21 09:37:44;;;;;;;12.30;8.30;;;;;;;;;;5135718;27;20023;-68
2022/05/21 09:40:31;;;;;;;12.00;7.73;;;;;;;;;;5130419;27;20109;-68
2022/05/21 09:45:43;;;;;;;13.18;8.07;;;;;;;;;;5130606;27;20034;-68
2022/05/21 09:48:10;;;;;;;16.70;9.07;;;;;;;;;;5133558;27;20385;-68
2022/05/21 09:50:52;;;;;;;18.33;8.73;;;;;;;;;;5156586;27;20063;-68
2022/05/21 09:53:38;;;;;;;13.60;8.87;;;;;;;;;;5156486;27;20049;-68
2022/05/21 09:56:05;;;;;;;14.47;8.47;;;;;;;;;;5156614;27;20433;-68
2022/05/21 09:58:34;;;;;;;15.33;8.07;;;;;;;;;;5156432;27;20018;-68
2022/05/21 10:01:01;;;;;;;12.53;8.30;;;;;;;;;;5153690;27;20094;-68
2022/05/21 10:03:46;;;;;;;13.37;7.50;;;;;;;;;;5151093;27;20102;-68
2022/05/21 10:06:31;;;;;;;13.35;8.02;;;;;;;;;;5130339;27;20091;-68
2022/05/21 10:11:48;;;;;;;18.80;9.03;;;;;;;;;;5133715;27;20046;-69
2022/05/21 10:14:24;;;;;;;16.57;9.23;;;;;;;;;;5135494;27;20035;-68
2022/05/21 10:17:01;;;;;;;15.33;8.97;;;;;;;;;;5135534;27;20019;-68
2022/05/21 10:19:31;;;;;;;13.80;8.37;;;;;;;;;;5135163;27;20078;-68
2022/05/21 10:21:57;;;;;;;18.93;8.30;;;;;;;;;;5155882;27;20110;-68
2022/05/21 10:24:27;;;;;;;14.43;8.70;;;;;;;;;;5150740;27;20110;-68
2022/05/21 10:26:57;;;;;;;14.73;8.10;;;;;;;;;;5150644;27;20030;-68
2022/05/21 10:29:37;;;;;;;17.73;9.87;;;;;;;;;;5150635;27;20015;-68
2022/05/21 10:32:11;;;;;;;15.83;8.27;;;;;;;;;;5150522;27;20015;-68
2022/05/21 10:34:47;;;;;;;13.63;8.93;;;;;;;;;;5155070;27;20035;-68
2022/05/21 10:37:20;;;;;;;15.33;8.30;;;;;;;;;;5138282;27;20027;-68
2022/05/21 10:40:07;;;;;;;14.77;9.80;;;;;;;;;;5134821;27;20485;-68
2022/05/21 10:42:52;;;;;;;16.93;10.13;;;;;;;;;;5134969;27;20011;-68
2022/05/21 10:45:38;;;;;;;17.40;10.30;;;;;;;;;;5133328;27;20085;-68
2022/05/21 10:48:18;;;;;;;19.90;10.30;;;;;;;;;;5115205;27;20035;-68
2022/05/21 10:50:51;;;;;;;17.70;9.97;;;;;;;;;;5129167;27;20087;-68
2022/05/21 10:53:19;;;;;;;28.00;15.37;;;;;;;;;;5128483;27;20027;-68
2022/05/21 10:56:00;;;;;;;35.03;20.23;;;;;;;;;;5131351;27;20027;-68
2022/05/21 10:58:30;;;;;;;25.57;14.67;;;;;;;;;;5134561;27;20027;-68
2022/05/21 11:01:13;;;;;;;32.20;16.93;;;;;;;;;;5134231;27;20481;-68
2022/05/21 11:03:49;;;;;;;22.27;13.17;;;;;;;;;;5134329;27;20027;-68
2022/05/21 11:06:19;;;;;;;23.87;12.43;;;;;;;;;;5134612;27;20426;-68
2022/05/21 11:09:02;;;;;;;17.60;10.20;;;;;;;;;;5147856;27;20026;-68
2022/05/21 11:11:39;;;;;;;23.70;12.87;;;;;;;;;;5149898;27;20419;-68
2022/05/21 11:14:18;;;;;;;24.67;13.00;;;;;;;;;;5149441;27;20034;-68
2022/05/21 11:16:59;;;;;;;19.57;11.30;;;;;;;;;;5149668;27;20026;-68
2022/05/21 11:19:45;;;;;;;22.60;10.37;;;;;;;;;;5154504;27;20455;-68
2022/05/21 11:22:19;;;;;;;16.27;10.03;;;;;;;;;;5154594;27;20049;-68
2022/05/21 11:24:51;;;;;;;17.65;10.13;;;;;;;;;;5118881;27;20469;-68
2022/05/21 11:27:24;;;;;;;18.77;10.47;;;;;;;;;;5134187;27;20019;-68
2022/05/21 11:29:50;;;;;;;19.97;11.17;;;;;;;;;;5132849;27;20114;-68
2022/05/21 11:37:59;;;;;;;13.97;9.17;;;;;;;;;;5128326;27;20046;-68
2022/05/21 11:44:55;;;;;;;18.17;9.83;;;;;;;;;;5070475;28;20035;-68
2022/05/21 11:46:45;;;;;;;20.10;11.10;;;;;;;;;;5070208;28;20040;-68
2022/05/21 11:49:30;;;;;;;22.07;11.53;;;;;;;;;;5138382;27;20047;-68
2022/05/21 11:52:00;;;;;;;17.05;9.73;;;;;;;;;;5153759;27;20491;-68
2022/05/21 11:54:45;;;;;;;21.60;11.40;;;;;;;;;;5145504;27;20488;-68
2022/05/21 11:57:12;;;;;;;23.23;13.25;;;;;;;;;;5133087;27;20725;-68
2022/05/21 11:59:52;;;;;;;20.80;12.20;;;;;;;;;;5148967;27;20067;-68
2022/05/21 12:02:48;;;;;;;20.83;12.33;;;;;;;;;;5150052;27;20039;-68
2022/05/21 12:05:38;;;;;;;25.65;13.23;;;;;;;;;;5151965;27;20568;-68
2022/05/21 12:08:16;;;;;;;22.30;14.43;;;;;;;;;;5153864;27;20010;-68
2022/05/21 12:11:14;;;;;;;24.03;14.10;;;;;;;;;;5135978;27;20506;-68
2022/05/21 12:13:49;;;;;;;26.47;12.83;;;;;;;;;;5088243;27;20040;-68
2022/05/21 12:16:16;;;;;;;17.73;11.07;;;;;;;;;;5127963;27;20022;-68
2022/05/21 12:18:42;;;;;;;19.37;11.77;;;;;;;;;;5127995;28;20051;-68
2022/05/21 12:21:13;;;;;;;20.23;11.63;;;;;;;;;;5128295;28;20411;-68
2022/05/21 12:23:43;;;;;;;19.83;11.63;;;;;;;;;;5137819;27;20030;-68
2022/05/21 12:26:23;;;;;;;24.43;11.60;;;;;;;;;;5153027;27;20054;-68
2022/05/21 12:28:51;;;;;;;19.73;11.33;;;;;;;;;;5153761;27;20022;-68
2022/05/21 12:31:24;;;;;;;18.03;11.77;;;;;;;;;;5153574;27;20479;-68
2022/05/21 12:34:09;;;;;;;19.37;12.53;;;;;;;;;;5153925;27;20377;-68
2022/05/21 12:36:45;;;;;;;22.20;11.85;;;;;;;;;;5153174;27;20023;-68
2022/05/21 12:39:14;;;;;;;26.17;14.33;;;;;;;;;;5141600;27;20619;-68
2022/05/21 12:41:43;;;;;;;25.77;14.30;;;;;;;;;;5127847;28;20019;-68
2022/05/21 12:44:11;;;;;;;23.77;13.07;;;;;;;;;;5127819;28;20019;-68
2022/05/21 12:46:52;;;;;;;24.27;12.97;;;;;;;;;;5127803;28;20030;-68
2022/05/21 12:49:18;;;;;;;25.53;14.13;;;;;;;;;;5132619;28;20045;-68
2022/05/21 12:51:49;;;;;;;28.90;14.37;;;;;;;;;;5132890;28;20059;-68
2022/05/21 12:54:20;;;;;;;28.00;14.03;;;;;;;;;;5135295;27;20031;-68
2022/05/21 12:56:47;;;;;;;26.17;15.07;;;;;;;;;;5153612;27;20019;-68
2022/05/21 12:59:19;;;;;;;23.13;12.43;;;;;;;;;;5152242;27;20026;-68
2022/05/21 13:01:52;;;;;;;23.83;12.27;;;;;;;;;;5147846;27;20053;-68
2022/05/21 13:04:23;;;;;;;24.57;12.50;;;;;;;;;;5148271;27;20078;-68
2022/05/21 13:06:53;;;;;;;26.43;12.70;;;;;;;;;;5148169;27;20171;-68
2022/05/21 13:09:20;;;;;;;28.90;13.47;;;;;;;;;;5149411;27;20031;-68
2022/05/21 13:11:47;;;;;;;25.33;14.37;;;;;;;;;;5151794;27;20377;-68
2022/05/21 13:14:18;;;;;;;34.40;15.27;;;;;;;;;;5137551;27;20028;-68
2022/05/21 13:16:48;;;;;;;32.57;18.00;;;;;;;;;;5134724;27;20462;-69
2022/05/21 13:19:28;;;;;;;23.57;14.90;;;;;;;;;;5136502;27;20020;-68
2022/05/21 13:21:55;;;;;;;26.73;16.03;;;;;;;;;;5134418;27;20381;-68
2022/05/21 13:24:22;;;;;;;29.97;14.57;;;;;;;;;;5131041;27;20079;-69
2022/05/21 13:27:02;;;;;;;23.80;14.03;;;;;;;;;;5135982;27;20023;-69
2022/05/21 13:29:30;;;;;;;22.30;13.33;;;;;;;;;;5131180;27;20024;-69
2022/05/21 13:31:57;;;;;;;21.13;12.17;;;;;;;;;;5132698;27;20100;-69
2022/05/21 13:34:25;;;;;;;25.87;13.67;;;;;;;;;;5136184;27;20029;-69
2022/05/21 13:36:53;;;;;;;28.10;15.93;;;;;;;;;;5136126;27;20023;-69
2022/05/21 13:39:28;;;;;;;27.60;13.90;;;;;;;;;;5136856;27;20031;-69
2022/05/21 13:41:56;;;;;;;25.75;14.65;;;;;;;;;;5142403;27;20023;-69
2022/05/21 13:44:26;;;;;;;23.23;13.60;;;;;;;;;;5116177;27;20443;-69
2022/05/21 13:46:58;;;;;;;19.80;11.50;;;;;;;;;;5151312;27;20384;-70
2022/05/21 13:49:24;;;;;;;20.17;11.07;;;;;;;;;;5148237;27;20023;-69
2022/05/21 13:51:52;;;;;;;18.83;11.03;;;;;;;;;;5150759;27;20038;-69
2022/05/21 13:54:18;;;;;;;27.00;11.03;;;;;;;;;;5152474;27;20388;-71
2022/05/21 13:56:45;;;;;;;17.23;10.50;;;;;;;;;;5156620;27;20058;-70
2022/05/21 13:59:19;;;;;;;15.77;10.33;;;;;;;;;;5156504;27;20101;-70
2022/05/21 14:01:58;;;;;;;20.13;10.93;;;;;;;;;;5149841;27;20476;-70
2022/05/21 14:04:34;;;;;;;18.40;10.77;;;;;;;;;;5134979;27;20015;-68
2022/05/21 14:07:02;;;;;;;27.57;13.23;;;;;;;;;;5132746;27;20043;-71
2022/05/21 14:09:29;;;;;;;26.90;12.20;;;;;;;;;;5130683;27;20026;-72
2022/05/21 14:11:58;;;;;;;26.00;12.80;;;;;;;;;;5130219;27;20027;-73
2022/05/21 14:14:26;;;;;;;26.33;12.27;;;;;;;;;;5130560;27;20508;-71
2022/05/21 14:17:07;;;;;;;23.83;12.50;;;;;;;;;;5133004;27;20362;-72
2022/05/21 14:19:34;;;;;;;22.67;11.30;;;;;;;;;;5135445;27;20027;-72
2022/05/21 14:22:05;;;;;;;21.07;13.07;;;;;;;;;;5136637;27;20365;-73
2022/05/21 14:24:33;;;;;;;24.23;12.90;;;;;;;;;;5115016;28;20015;-69
2022/05/21 14:27:01;;;;;;;22.13;12.50;;;;;;;;;;5114504;28;20018;-71
2022/05/21 14:29:37;;;;;;;26.70;14.53;;;;;;;;;;5111556;28;20153;-70
2022/05/21 14:32:18;;;;;;;28.37;13.40;;;;;;;;;;5109830;28;20019;-69
2022/05/21 14:34:46;;;;;;;25.97;13.33;;;;;;;;;;5109549;28;20081;-70
2022/05/21 14:37:26;;;;;;;28.03;15.60;;;;;;;;;;5133264;27;20019;-70
2022/05/21 14:39:53;;;;;;;25.23;13.00;;;;;;;;;;5153859;27;20050;-69
2022/05/21 14:42:20;;;;;;;28.43;12.07;;;;;;;;;;5139325;27;20079;-76
2022/05/21 14:44:47;;;;;;;26.27;11.57;;;;;;;;;;5135028;27;20023;-72
2022/05/21 14:47:57;;;;;;;20.60;11.47;;;;;;;;;;5146775;27;20023;-71
2022/05/21 14:52:52;;;;;;;;;;;;;;;;;;5150934;27;20110;-75
2022/05/21 14:55:19;;;;;;;19.20;9.70;;;;;;;;;;5148272;27;19910;-75
2022/05/21 14:57:46;;;;;;;21.73;11.40;;;;;;;;;;5129926;27;20496;-71
2022/05/21 15:00:14;;;;;;;18.57;10.47;;;;;;;;;;5129740;27;20027;-70
2022/05/21 15:02:40;;;;;;;17.93;10.40;;;;;;;;;;5133574;27;20046;-70
2022/05/21 15:05:07;;;;;;;17.43;10.10;;;;;;;;;;5134716;27;20106;-73
2022/05/21 15:07:36;;;;;;;14.10;9.10;;;;;;;;;;5134512;27;20624;-73
2022/05/21 15:10:04;;;;;;;22.30;9.80;;;;;;;;;;5140494;27;20473;-74
2022/05/21 15:12:33;;;;;;;15.60;8.93;;;;;;;;;;5134518;27;20090;-73
2022/05/21 15:15:01;;;;;;;20.47;10.07;;;;;;;;;;5129532;27;20102;-72
2022/05/21 15:17:28;;;;;;;21.07;9.60;;;;;;;;;;5129616;27;20148;-72